Time;durP1;ratioP1;P1;durP2;ratioP2;P2;SDS_P1;SDS_P2;PMS_P1;PMS_P2;Temp;Humidity;BMP_temperature;BMP_pressure;BME280_temperature;BME280_humidity;BME280_pressure;Samples;Min_cycle;Max_cycle;Signal;HPM_P1;HPM_P2
2022/07/20 00:00:23;;;;;;;9.10;6.35;;;;;;;19.93;63.37;99049.66;1689306;85;25485;-63
2022/07/20 00:02:50;;;;;;;10.85;6.47;;;;;;;19.80;63.57;99051.77;1689688;84;25592;-62
2022/07/20 00:05:16;;;;;;;11.28;7.10;;;;;;;19.71;63.72;99048.41;1689275;84;25680;-64
2022/07/20 00:07:42;;;;;;;10.95;6.12;;;;;;;19.71;63.66;99051.19;1689861;84;25709;-64
2022/07/20 00:12:53;;;;;;;11.78;6.70;;;;;;;19.63;63.64;99045.28;1694595;84;25656;-64
2022/07/20 00:15:20;;;;;;;13.30;6.87;;;;;;;19.59;63.84;99042.98;1694647;84;25725;-64
2022/07/20 00:17:46;;;;;;;9.88;6.90;;;;;;;19.50;64.08;99046.81;1694979;84;25607;-64
2022/07/20 00:20:12;;;;;;;12.10;6.53;;;;;;;19.46;64.19;99043.73;1694701;84;25473;-63
2022/07/20 00:22:39;;;;;;;9.18;6.53;;;;;;;19.45;64.55;99041.53;1694647;84;27460;-61
2022/07/20 00:25:07;;;;;;;12.28;6.70;;;;;;;19.48;64.74;99041.37;1694525;84;25603;-63
2022/07/20 00:27:33;;;;;;;11.68;6.58;;;;;;;19.49;64.52;99035.45;1695078;84;25631;-60
2022/07/20 00:30:00;;;;;;;11.08;6.92;;;;;;;19.52;64.27;99031.94;1694797;84;25465;-63
2022/07/20 00:32:26;;;;;;;11.00;7.30;;;;;;;19.48;64.82;99032.46;1694907;84;25458;-63
2022/07/20 00:34:52;;;;;;;10.03;6.40;;;;;;;19.35;64.93;99031.00;1694919;84;27371;-63
2022/07/20 00:37:19;;;;;;;10.08;6.40;;;;;;;19.37;64.98;99033.63;1694569;84;25621;-63
2022/07/20 00:39:45;;;;;;;9.70;5.50;;;;;;;19.40;64.80;99028.72;1694816;84;25766;-61
2022/07/20 00:42:11;;;;;;;9.93;5.58;;;;;;;19.46;64.26;99027.06;1694826;84;25588;-62
2022/07/20 00:44:38;;;;;;;10.75;5.75;;;;;;;19.49;64.03;99029.89;1695024;84;25441;-63
2022/07/20 00:47:04;;;;;;;9.25;6.28;;;;;;;19.52;64.15;99023.60;1694967;84;27493;-63
2022/07/20 00:49:30;;;;;;;13.13;6.40;;;;;;;19.49;64.33;99024.94;1694938;84;25481;-62
2022/07/20 00:51:56;;;;;;;7.65;5.50;;;;;;;19.43;64.40;99025.22;1695040;84;25511;-63
2022/07/20 00:54:23;;;;;;;9.73;5.85;;;;;;;19.47;64.34;99036.42;1692455;84;26188;-64
2022/07/20 00:56:50;;;;;;;8.70;5.92;;;;;;;19.52;64.27;99031.94;1694923;84;25611;-62
2022/07/20 00:59:16;;;;;;;10.23;6.55;;;;;;;19.50;64.23;99025.97;1694875;84;27391;-63
2022/07/20 01:01:43;;;;;;;12.03;6.70;;;;;;;19.38;64.76;99027.48;1694994;84;25656;-64
2022/07/20 01:04:09;;;;;;;10.58;6.00;;;;;;;19.27;65.08;99023.91;1695206;84;25665;-64
2022/07/20 01:06:35;;;;;;;9.43;6.55;;;;;;;19.19;65.03;99029.07;1694770;84;25612;-63
2022/07/20 01:09:02;;;;;;;9.13;6.00;;;;;;;19.19;65.35;99031.84;1695001;84;25615;-64
2022/07/20 01:11:28;;;;;;;10.03;6.00;;;;;;;19.21;65.37;99032.87;1689987;83;29553;-63
2022/07/20 01:14:04;;;;;;;9.55;6.10;;;;;;;19.22;65.06;99031.70;1689587;84;25654;-63
2022/07/20 01:16:30;;;;;;;8.73;6.05;;;;;;;19.22;65.11;99032.52;1689730;84;25461;-63
2022/07/20 01:18:57;;;;;;;11.12;6.22;;;;;;;19.25;64.72;99029.01;1689315;84;25659;-63
2022/07/20 01:21:23;;;;;;;8.75;5.97;;;;;;;19.29;65.00;99029.88;1689370;84;25622;-63
2022/07/20 01:23:49;;;;;;;15.78;6.17;;;;;;;19.29;64.92;99027.10;1689644;84;28334;-62
2022/07/20 01:26:20;;;;;;;9.90;6.62;;;;;;;19.28;64.97;99027.47;1689761;84;25569;-63
2022/07/20 01:28:47;;;;;;;12.23;6.30;;;;;;;19.25;65.09;99030.97;1689656;84;25489;-63
2022/07/20 01:31:13;;;;;;;9.83;6.17;;;;;;;19.19;65.16;99030.46;1689573;84;25644;-64
2022/07/20 01:33:40;;;;;;;9.45;6.10;;;;;;;19.14;65.16;99034.32;1689528;84;25616;-64
2022/07/20 01:36:07;;;;;;;9.83;6.05;;;;;;;19.13;65.27;99031.34;1689618;84;28175;-63
2022/07/20 01:38:34;;;;;;;9.23;5.58;;;;;;;19.09;65.57;99037.41;1689742;84;25616;-64
2022/07/20 01:41:00;;;;;;;9.83;6.83;;;;;;;18.92;65.98;99037.17;1689520;84;25626;-61
2022/07/20 01:43:26;;;;;;;9.75;6.03;;;;;;;18.86;66.00;99038.63;1689642;84;25670;-63
2022/07/20 01:45:52;;;;;;;8.23;5.87;;;;;;;18.88;65.97;99038.47;1689790;84;25671;-62
2022/07/20 01:48:18;;;;;;;11.53;6.10;;;;;;;18.89;66.03;99042.06;1689749;84;27552;-63
2022/07/20 01:50:44;;;;;;;8.45;5.87;;;;;;;18.81;66.06;99045.25;1689711;84;25602;-63
2022/07/20 01:53:10;;;;;;;9.43;6.03;;;;;;;18.77;66.19;99038.22;1689731;84;25716;-63
2022/07/20 01:55:36;;;;;;;9.13;6.00;;;;;;;18.76;66.17;99039.96;1689689;84;25521;-63
2022/07/20 01:58:03;;;;;;;12.35;6.20;;;;;;;18.73;66.21;99032.35;1689429;84;25655;-61
2022/07/20 02:00:29;;;;;;;10.65;6.37;;;;;;;18.69;66.43;99036.45;1689556;84;27494;-60
2022/07/20 02:02:56;;;;;;;11.30;5.80;;;;;;;18.63;66.69;99028.17;1689744;84;25449;-63
2022/07/20 02:05:22;;;;;;;9.98;6.00;;;;;;;18.55;67.05;99032.73;1689637;84;25611;-63
2022/07/20 02:07:48;;;;;;;8.90;6.28;;;;;;;18.48;67.28;99031.97;1689700;84;25719;-62
2022/07/20 02:10:15;;;;;;;9.58;5.83;;;;;;;18.40;67.51;99032.97;1690367;84;25686;-61
2022/07/20 02:12:42;;;;;;;11.63;5.70;;;;;;;18.33;67.50;99030.80;1694715;84;29617;-63
2022/07/20 02:15:11;;;;;;;9.45;6.05;;;;;;;18.39;67.70;99032.75;1694611;84;25647;-63
2022/07/20 02:17:38;;;;;;;9.13;6.20;;;;;;;18.48;67.49;99031.18;1695134;84;25768;-63
2022/07/20 02:20:06;;;;;;;9.28;6.28;;;;;;;18.46;67.36;99022.39;1694878;84;25697;-63
2022/07/20 02:22:32;;;;;;;9.95;5.97;;;;;;;18.39;67.33;99025.81;1694876;84;25753;-62
2022/07/20 02:24:58;;;;;;;12.47;6.85;;;;;;;18.30;67.50;99035.11;1695019;84;27392;-62
2022/07/20 02:27:25;;;;;;;12.30;6.28;;;;;;;18.27;67.57;99030.27;1694893;84;25837;-63
2022/07/20 02:29:51;;;;;;;11.78;6.53;;;;;;;18.24;67.68;99028.78;1694495;84;25417;-63
2022/07/20 02:32:18;;;;;;;10.05;6.12;;;;;;;18.24;67.79;99027.39;1694964;84;25588;-63
2022/07/20 02:34:44;;;;;;;8.53;6.17;;;;;;;18.20;67.95;99023.73;1694739;84;25608;-63
2022/07/20 02:37:10;;;;;;;9.85;6.12;;;;;;;18.15;67.75;99028.39;1694559;84;27479;-60
2022/07/20 02:39:36;;;;;;;9.45;5.72;;;;;;;18.14;67.86;99023.98;1694878;84;25635;-63
2022/07/20 02:42:03;;;;;;;10.32;6.97;;;;;;;18.16;67.93;99028.60;1694540;84;25638;-63
2022/07/20 02:44:30;;;;;;;11.22;6.22;;;;;;;18.16;67.81;99024.44;1694879;84;25913;-62
2022/07/20 02:46:56;;;;;;;10.15;6.22;;;;;;;18.13;67.83;99020.99;1694961;84;25418;-63
2022/07/20 02:49:23;;;;;;;9.28;5.75;;;;;;;18.15;67.98;99026.19;1694548;84;29506;-63
2022/07/20 02:51:50;;;;;;;7.60;5.78;;;;;;;18.18;67.83;99026.86;1694443;84;26135;-63
2022/07/20 02:54:16;;;;;;;11.48;5.90;;;;;;;18.22;67.77;99026.97;1694659;84;25513;-62
2022/07/20 02:56:43;;;;;;;10.48;6.30;;;;;;;18.26;67.57;99032.83;1694524;84;25493;-63
2022/07/20 02:59:10;;;;;;;10.88;6.95;;;;;;;18.23;67.79;99030.77;1694647;84;25725;-63
2022/07/20 03:01:36;;;;;;;10.48;6.28;;;;;;;18.13;67.96;99032.69;1694998;84;27421;-63
2022/07/20 03:04:03;;;;;;;10.53;6.25;;;;;;;18.09;68.08;99029.78;1694570;84;25485;-63
2022/07/20 03:06:29;;;;;;;13.13;6.55;;;;;;;18.09;67.92;99035.89;1694816;84;25498;-63
2022/07/20 03:08:55;;;;;;;9.75;5.97;;;;;;;18.05;68.19;99028.28;1694897;84;25606;-63
2022/07/20 03:11:21;;;;;;;11.70;6.75;;;;;;;17.96;68.27;99035.17;1694671;84;25667;-63
2022/07/20 03:13:47;;;;;;;9.00;6.10;;;;;;;17.91;68.53;99034.84;1694494;84;27446;-63
2022/07/20 03:16:13;;;;;;;11.63;6.78;;;;;;;17.85;68.74;99044.00;1695027;84;26167;-62
2022/07/20 03:18:39;;;;;;;10.43;6.37;;;;;;;17.80;68.72;99039.52;1694899;84;25655;-59
2022/07/20 03:21:05;;;;;;;13.32;6.65;;;;;;;17.84;68.67;99042.97;1694867;84;25693;-56
2022/07/20 03:23:31;;;;;;;11.08;6.97;;;;;;;17.87;68.54;99044.44;1695072;84;25601;-63
2022/07/20 03:25:57;;;;;;;11.48;6.58;;;;;;;17.91;68.57;99037.62;1694972;84;27585;-56
2022/07/20 03:28:23;;;;;;;10.63;6.20;;;;;;;17.97;68.52;99042.31;1694614;84;25824;-59
2022/07/20 03:30:49;;;;;;;9.40;6.12;;;;;;;18.00;68.40;99045.77;1694875;84;25627;-58
2022/07/20 03:33:15;;;;;;;8.55;6.17;;;;;;;18.10;68.31;99050.79;1694888;84;25634;-63
2022/07/20 03:35:47;;;;;;;10.18;6.25;;;;;;;18.21;68.29;99056.66;1694955;84;25631;-63
2022/07/20 03:38:25;;;;;;;10.32;6.37;;;;;;;18.28;68.14;99054.66;1694576;84;28263;-62
2022/07/20 03:41:00;;;;;;;10.60;7.05;;;;;;;18.24;68.31;99053.75;1694385;84;25626;-63
2022/07/20 03:43:26;;;;;;;10.48;6.60;;;;;;;18.21;68.46;99057.23;1694649;84;25489;-62
2022/07/20 03:45:52;;;;;;;9.38;6.40;;;;;;;18.18;68.56;99063.73;1695157;84;25580;-64
2022/07/20 03:48:19;;;;;;;15.40;7.37;;;;;;;18.16;68.56;99059.68;1694952;84;25441;-64
2022/07/20 03:50:46;;;;;;;10.28;6.37;;;;;;;18.21;68.41;99062.78;1695014;84;28237;-63
2022/07/20 03:53:13;;;;;;;10.18;6.37;;;;;;;18.25;68.32;99064.48;1694819;84;25822;-63
2022/07/20 03:55:40;;;;;;;11.68;7.10;;;;;;;18.31;68.29;99065.05;1694986;84;25878;-63
2022/07/20 03:58:06;;;;;;;11.15;6.50;;;;;;;18.34;68.60;99061.56;1694751;84;25636;-64
2022/07/20 04:00:33;;;;;;;10.85;6.50;;;;;;;18.42;68.66;99061.14;1694722;84;25615;-63
2022/07/20 04:03:00;;;;;;;10.13;6.90;;;;;;;18.49;68.32;99069.67;1694655;84;27393;-63
2022/07/20 04:05:27;;;;;;;11.40;6.92;;;;;;;18.60;68.22;99069.95;1694562;84;25630;-63
2022/07/20 04:07:53;;;;;;;8.95;5.50;;;;;;;18.76;68.00;99082.42;1695063;84;25430;-61
2022/07/20 04:10:19;;;;;;;10.25;6.47;;;;;;;18.92;67.80;99075.48;1694580;84;25623;-63
2022/07/20 04:12:46;;;;;;;12.10;6.20;;;;;;;19.09;67.41;99069.34;1689513;84;25679;-62
2022/07/20 04:15:12;;;;;;;12.43;6.00;;;;;;;19.25;67.12;99073.46;1689754;84;28251;-62
2022/07/20 04:17:41;;;;;;;10.03;6.05;;;;;;;19.35;66.90;99071.28;1689335;84;25694;-56
2022/07/20 04:20:09;;;;;;;9.93;5.75;;;;;;;19.47;66.55;99071.16;1689384;84;25794;-62
2022/07/20 04:22:35;;;;;;;10.48;6.12;;;;;;;19.62;66.09;99067.28;1689701;84;25672;-57
2022/07/20 04:25:01;;;;;;;11.53;4.78;;;;;;;19.78;66.14;99078.34;1689920;84;25601;-60
2022/07/20 04:27:28;;;;;;;8.88;4.83;;;;;;;19.89;64.48;99070.22;1689431;84;27483;-57
2022/07/20 04:29:54;;;;;;;8.28;4.87;;;;;;;20.01;63.66;99074.24;1689699;84;25775;-57
2022/07/20 04:32:20;;;;;;;7.95;4.92;;;;;;;20.11;63.48;99072.03;1689875;84;25687;-62
2022/07/20 04:34:47;;;;;;;8.55;4.67;;;;;;;20.21;62.85;99070.06;1689681;84;25445;-63
2022/07/20 04:37:13;;;;;;;13.85;4.70;;;;;;;20.31;62.53;99066.67;1689497;84;25600;-64
2022/07/20 04:39:39;;;;;;;7.95;4.47;;;;;;;20.45;62.15;99065.30;1689892;84;27452;-62
2022/07/20 04:42:06;;;;;;;11.45;4.65;;;;;;;20.58;61.46;99067.91;1689584;84;25748;-61
2022/07/20 04:44:32;;;;;;;9.48;4.37;;;;;;;20.71;61.88;99062.35;1689438;84;25663;-59
2022/07/20 04:46:58;;;;;;;10.23;4.67;;;;;;;20.88;60.97;99068.58;1689764;84;25608;-56
2022/07/20 04:49:25;;;;;;;7.78;4.70;;;;;;;21.00;60.32;99069.80;1689632;84;25507;-61
2022/07/20 04:51:51;;;;;;;11.55;3.85;;;;;;;21.14;59.81;99078.16;1689701;84;27476;-61
2022/07/20 04:54:18;;;;;;;9.13;4.30;;;;;;;21.28;59.54;99072.80;1689374;84;27198;-63
2022/07/20 04:56:45;;;;;;;8.03;4.42;;;;;;;21.44;59.49;99084.34;1689407;84;25674;-57
2022/07/20 04:59:11;;;;;;;14.18;5.78;;;;;;;21.57;59.40;99082.13;1689401;84;25450;-57
2022/07/20 05:01:38;;;;;;;12.30;6.33;;;;;;;21.73;61.02;99079.13;1689763;84;25659;-64
2022/07/20 05:04:05;;;;;;;12.98;6.47;;;;;;;21.83;61.29;99086.06;1689337;84;27455;-64
2022/07/20 05:06:31;;;;;;;11.40;6.40;;;;;;;21.98;61.25;99083.43;1689870;84;25656;-62
2022/07/20 05:08:57;;;;;;;11.48;4.92;;;;;;;22.15;60.51;99089.01;1689745;84;25695;-60
2022/07/20 05:11:23;;;;;;;7.80;4.53;;;;;;;22.29;58.99;99099.52;1689505;84;26258;-60
2022/07/20 05:13:50;;;;;;;8.68;4.30;;;;;;;22.39;57.74;99093.23;1689616;84;25576;-63
2022/07/20 05:16:16;;;;;;;9.60;4.53;;;;;;;22.54;57.58;99091.38;1689795;84;27385;-62
2022/07/20 05:18:43;;;;;;;11.18;4.03;;;;;;;22.66;56.22;99095.94;1689624;84;25620;-64
2022/07/20 05:21:09;;;;;;;9.98;4.00;;;;;;;22.77;55.50;99097.39;1689578;84;25459;-63
2022/07/20 05:23:35;;;;;;;7.37;4.10;;;;;;;22.89;56.00;99093.52;1689395;84;25755;-62
2022/07/20 05:26:03;;;;;;;6.33;4.17;;;;;;;23.00;55.04;99094.19;1689649;84;25611;-63
2022/07/20 05:28:30;;;;;;;7.15;3.62;;;;;;;23.10;54.56;99097.65;1689855;84;27419;-57
2022/07/20 05:30:57;;;;;;;9.60;3.80;;;;;;;23.23;53.83;99098.12;1689471;84;25664;-56
2022/07/20 05:33:24;;;;;;;9.35;3.98;;;;;;;23.33;53.56;99097.19;1689576;84;25663;-57
2022/07/20 05:35:51;;;;;;;5.53;3.47;;;;;;;23.46;53.82;99099.10;1689791;84;25570;-57
2022/07/20 05:38:19;;;;;;;6.37;3.40;;;;;;;23.60;52.34;99096.36;1689742;84;25441;-56
2022/07/20 05:40:46;;;;;;;5.53;3.17;;;;;;;23.76;52.41;99093.84;1689709;84;27606;-61
2022/07/20 05:43:13;;;;;;;7.35;3.10;;;;;;;23.87;51.98;99096.69;1689540;84;25691;-57
2022/07/20 05:45:40;;;;;;;9.13;3.35;;;;;;;23.97;50.15;99095.13;1689365;84;25703;-64
2022/07/20 05:48:10;;;;;;;5.42;3.70;;;;;;;24.06;50.75;99096.34;1689623;84;25603;-60
2022/07/20 05:50:35;;;;;;;6.58;3.67;;;;;;;24.18;51.05;99094.42;1689254;84;25754;-57
2022/07/20 05:53:02;;;;;;;6.97;3.58;;;;;;;24.34;50.75;99099.64;1689584;84;27436;-65
2022/07/20 05:55:28;;;;;;;6.28;3.45;;;;;;;24.51;50.00;99096.67;1689408;84;25647;-62
2022/07/20 05:57:55;;;;;;;9.90;3.40;;;;;;;24.64;49.97;99094.27;1689538;84;25425;-65
2022/07/20 06:00:22;;;;;;;5.42;3.30;;;;;;;24.79;49.10;99098.48;1689414;84;25445;-61
2022/07/20 06:02:49;;;;;;;6.53;3.02;;;;;;;24.87;49.39;99095.87;1689603;84;25469;-60
2022/07/20 06:05:16;;;;;;;6.22;3.30;;;;;;;24.97;48.52;99090.09;1689545;84;27593;-65
2022/07/20 06:07:42;;;;;;;6.85;3.50;;;;;;;25.10;48.89;99093.89;1689480;84;25659;-65
2022/07/20 06:10:10;;;;;;;7.70;3.70;;;;;;;25.23;48.19;99092.27;1689466;84;25675;-64
2022/07/20 06:12:38;;;;;;;6.90;3.15;;;;;;;25.39;48.07;99093.84;1692352;84;25581;-65
2022/07/20 06:15:06;;;;;;;5.30;3.20;;;;;;;25.53;46.87;99092.38;1694736;84;25599;-65
2022/07/20 06:17:35;;;;;;;5.45;3.15;;;;;;;25.64;46.31;99096.59;1695025;84;27631;-60
2022/07/20 06:20:07;;;;;;;9.60;3.25;;;;;;;25.76;46.50;99097.36;1694746;84;25640;-64
2022/07/20 06:22:39;;;;;;;7.85;3.50;;;;;;;25.86;46.53;99098.50;1694860;84;25498;-61
2022/07/20 06:25:09;;;;;;;9.85;3.27;;;;;;;25.89;45.87;99090.08;1694661;84;25874;-65
2022/07/20 06:27:36;;;;;;;5.30;3.12;;;;;;;26.06;46.34;99098.81;1694933;84;25647;-64
2022/07/20 06:30:05;;;;;;;7.05;3.30;;;;;;;26.20;45.65;99100.75;1694545;84;28274;-64
2022/07/20 06:32:33;;;;;;;7.77;3.77;;;;;;;26.29;45.56;99094.67;1660838;84;25755;-58
2022/07/20 06:35:00;;;;;;;6.72;3.47;;;;;;;26.45;44.88;99090.59;1661284;85;25731;-61
2022/07/20 06:37:27;;;;;;;5.45;3.37;;;;;;;26.58;44.22;99097.31;1657655;86;25675;-60
2022/07/20 06:39:54;;;;;;;7.53;3.17;;;;;;;26.69;44.40;99104.26;1675976;85;25734;-59
2022/07/20 06:42:20;;;;;;;8.23;3.67;;;;;;;26.87;44.77;99105.52;1679004;85;27664;-64
2022/07/20 06:44:48;;;;;;;7.22;3.42;;;;;;;26.96;44.10;99105.03;1679034;85;25755;-65
2022/07/20 06:47:15;;;;;;;6.58;3.83;;;;;;;27.04;45.29;99105.80;1680518;85;25642;-60
2022/07/20 06:49:43;;;;;;;7.83;3.67;;;;;;;27.30;44.72;99111.38;1680376;85;25684;-61
2022/07/20 06:52:09;;;;;;;6.55;3.52;;;;;;;27.49;43.68;99107.73;1680461;85;25481;-66
2022/07/20 06:54:36;;;;;;;5.92;3.35;;;;;;;27.66;42.63;99108.78;1680256;85;27562;-64
2022/07/20 06:57:03;;;;;;;9.30;3.83;;;;;;;27.90;42.58;99115.95;1680282;85;25679;-66
2022/07/20 06:59:30;;;;;;;10.58;3.50;;;;;;;28.10;42.05;99116.70;1680190;85;25727;-64
2022/07/20 07:01:57;;;;;;;7.22;3.05;;;;;;;28.25;40.62;99119.30;1680259;85;25729;-65
2022/07/20 07:04:23;;;;;;;9.63;3.22;;;;;;;28.35;41.17;99121.83;1680222;85;25483;-60
2022/07/20 07:06:50;;;;;;;7.67;3.40;;;;;;;28.61;39.19;99120.84;1680395;85;27429;-65
2022/07/20 07:09:16;;;;;;;7.62;3.62;;;;;;;28.72;39.95;99112.20;1680345;85;25784;-65
2022/07/20 07:11:44;;;;;;;6.12;3.02;;;;;;;28.83;39.61;99119.05;1679582;85;25597;-63
2022/07/20 07:14:10;;;;;;;7.15;3.40;;;;;;;28.95;39.08;99116.30;1675249;85;25707;-64
2022/07/20 07:16:37;;;;;;;6.65;3.35;;;;;;;29.01;38.77;99110.34;1675373;85;25507;-64
2022/07/20 07:19:04;;;;;;;6.83;3.30;;;;;;;29.15;40.29;99115.72;1675682;85;27658;-66
2022/07/20 07:21:31;;;;;;;9.08;3.67;;;;;;;29.39;39.49;99111.44;1675536;85;25680;-64
2022/07/20 07:23:57;;;;;;;4.78;3.20;;;;;;;29.63;39.41;99110.63;1675627;85;25700;-66
2022/07/20 07:26:24;;;;;;;5.30;2.87;;;;;;;29.83;39.05;99114.05;1675860;85;25473;-65
2022/07/20 07:28:51;;;;;;;5.92;3.30;;;;;;;29.75;39.14;99115.63;1675635;85;25570;-64
2022/07/20 07:31:19;;;;;;;6.85;3.33;;;;;;;29.91;39.16;99112.69;1675449;85;27462;-64
2022/07/20 07:33:47;;;;;;;6.70;3.40;;;;;;;29.99;38.99;99112.70;1675448;85;25634;-66
2022/07/20 07:36:14;;;;;;;5.33;2.90;;;;;;;30.13;39.43;99117.87;1675735;85;25617;-65
2022/07/20 07:38:41;;;;;;;5.50;2.90;;;;;;;30.13;38.11;99121.48;1675600;85;26128;-64
2022/07/20 07:41:08;;;;;;;5.25;3.00;;;;;;;30.10;39.03;99118.11;1675808;85;25483;-63
2022/07/20 07:43:35;;;;;;;4.80;3.30;;;;;;;30.27;38.98;99124.64;1675643;85;27470;-65
2022/07/20 07:46:02;;;;;;;7.22;3.30;;;;;;;30.75;37.97;99127.78;1675517;85;25481;-65
2022/07/20 07:48:29;;;;;;;4.60;2.98;;;;;;;30.85;36.96;99121.08;1675542;85;25425;-62
2022/07/20 07:50:57;;;;;;;6.50;2.98;;;;;;;30.88;37.04;99123.02;1675436;85;25670;-65
2022/07/20 07:53:24;;;;;;;3.77;2.75;;;;;;;31.14;37.27;99124.59;1675613;85;25409;-63
2022/07/20 07:55:51;;;;;;;6.05;2.70;;;;;;;31.63;36.52;99119.29;1675568;85;27434;-62
2022/07/20 07:58:19;;;;;;;4.03;2.50;;;;;;;32.11;35.81;99132.28;1675516;85;25655;-63
2022/07/20 08:00:45;;;;;;;3.62;2.50;;;;;;;32.35;34.17;99125.50;1675364;85;25469;-62
2022/07/20 08:03:12;;;;;;;3.05;2.52;;;;;;;32.58;33.68;99126.43;1675794;85;25807;-57
2022/07/20 08:05:39;;;;;;;5.42;2.20;;;;;;;32.76;32.23;99123.00;1675486;85;25614;-63
2022/07/20 08:08:09;;;;;;;5.17;2.50;;;;;;;32.90;31.94;99114.64;1675612;85;27492;-65
2022/07/20 08:10:38;;;;;;;4.15;2.47;;;;;;;33.22;34.04;99114.19;1675739;85;25674;-65
2022/07/20 08:13:05;;;;;;;6.33;2.90;;;;;;;33.23;31.84;99110.70;1675690;85;25661;-65
2022/07/20 08:15:32;;;;;;;4.22;2.67;;;;;;;33.09;32.60;99110.56;1675784;85;25754;-64
2022/07/20 08:18:00;;;;;;;4.65;2.33;;;;;;;33.28;32.90;99116.60;1676021;85;25417;-62
2022/07/20 08:20:27;;;;;;;3.12;2.52;;;;;;;33.66;30.45;99106.34;1675867;85;27487;-65
2022/07/20 08:22:54;;;;;;;4.45;2.70;;;;;;;33.83;30.59;99108.16;1675967;85;25406;-65
2022/07/20 08:25:22;;;;;;;6.42;3.00;;;;;;;33.99;30.99;99109.36;1675837;85;25728;-64
2022/07/20 08:27:50;;;;;;;5.00;2.70;;;;;;;34.27;31.45;99108.73;1676102;85;25909;-65
2022/07/20 08:30:17;;;;;;;5.55;2.65;;;;;;;34.53;30.45;99105.66;1676219;85;25425;-64
2022/07/20 08:32:44;;;;;;;8.78;2.80;;;;;;;34.86;30.94;99099.47;1676125;85;27463;-65
2022/07/20 08:35:11;;;;;;;5.80;2.42;;;;;;;35.10;31.50;99099.47;1676055;85;25848;-65
2022/07/20 08:37:39;;;;;;;4.60;2.52;;;;;;;35.35;30.25;99101.88;1676063;85;25675;-65
2022/07/20 08:40:08;;;;;;;4.65;2.50;;;;;;;35.63;29.76;99106.14;1676127;85;25703;-65
2022/07/20 08:42:35;;;;;;;3.20;2.40;;;;;;;35.81;29.51;99105.34;1676365;85;25727;-65
2022/07/20 08:45:03;;;;;;;3.35;2.47;;;;;;;36.04;29.09;99102.41;1675591;85;27492;-65
2022/07/20 08:47:30;;;;;;;3.25;2.45;;;;;;;36.41;28.88;99103.58;1675918;85;25474;-65
2022/07/20 08:49:57;;;;;;;3.15;2.60;;;;;;;36.67;27.64;99103.12;1675996;85;25671;-64
2022/07/20 08:52:24;;;;;;;3.25;2.35;;;;;;;36.52;27.33;99100.97;1675850;85;25745;-65
2022/07/20 08:54:51;;;;;;;2.77;2.22;;;;;;;36.66;27.05;99102.95;1675886;85;25612;-65
2022/07/20 08:57:18;;;;;;;4.15;2.15;;;;;;;36.92;26.56;99101.06;1676101;85;27535;-65
2022/07/20 08:59:46;;;;;;;4.83;2.45;;;;;;;37.07;25.47;99103.19;1675779;85;25607;-62
2022/07/20 09:02:14;;;;;;;5.90;2.70;;;;;;;37.10;25.10;99102.22;1676030;85;25758;-65
2022/07/20 09:04:59;;;;;;;4.08;2.35;;;;;;;36.93;24.46;99098.38;1675797;85;25838;-65
2022/07/20 09:07:45;;;;;;;3.42;2.50;;;;;;;36.81;25.21;99098.75;1676111;85;25755;-65
2022/07/20 09:10:17;;;;;;;3.98;2.20;;;;;;;37.20;24.93;99102.95;1676176;85;27465;-65
2022/07/20 09:13:06;;;;;;;3.95;2.05;;;;;;;37.03;24.59;99099.88;1675335;85;25651;-65
2022/07/20 09:15:54;;;;;;;4.08;2.42;;;;;;;37.20;24.60;99101.52;1675652;85;25460;-64
2022/07/20 09:18:28;;;;;;;4.33;2.12;;;;;;;37.33;24.93;99102.69;1675667;85;25914;-65
2022/07/20 09:21:04;;;;;;;4.37;2.17;;;;;;;37.67;25.00;99099.02;1676068;85;25592;-64
2022/07/20 09:23:35;;;;;;;3.12;2.10;;;;;;;38.06;24.80;99101.02;1675604;85;28312;-63
2022/07/20 09:26:09;;;;;;;4.72;2.40;;;;;;;38.35;24.92;99097.98;1674302;85;25624;-65
2022/07/20 09:28:43;;;;;;;2.90;2.10;;;;;;;38.49;23.23;99098.44;1656609;85;25787;-65
2022/07/20 09:31:14;;;;;;;3.87;1.87;;;;;;;38.62;22.23;99093.16;1675053;85;26595;-65
2022/07/20 09:34:01;;;;;;;2.62;1.98;;;;;;;38.41;22.18;99096.63;1675634;85;25714;-63
2022/07/20 09:36:31;;;;;;;3.83;2.10;;;;;;;38.14;22.11;99090.73;1675565;85;27967;-65
2022/07/20 09:39:20;;;;;;;2.87;2.45;;;;;;;37.65;22.64;99093.80;1675601;85;25725;-65
2022/07/20 09:41:58;;;;;;;;;;;;;;;37.91;23.29;99092.45;1677705;85;25619;-64
2022/07/20 09:44:29;;;;;;;2.77;2.20;;;;;;;37.78;22.00;99090.69;1675656;85;25903;-65
2022/07/20 09:46:56;;;;;;;3.00;2.02;;;;;;;37.33;22.15;99083.49;1675550;85;25619;-64
2022/07/20 09:49:34;;;;;;;3.60;1.90;;;;;;;37.60;22.68;99088.78;1675537;85;27338;-65
2022/07/20 09:52:03;;;;;;;5.13;2.27;;;;;;;37.81;22.17;99086.04;1675667;85;25659;-64
2022/07/20 09:54:30;;;;;;;3.42;2.10;;;;;;;37.68;22.18;99084.89;1675772;85;25698;-65
2022/07/20 09:56:57;;;;;;;3.60;2.40;;;;;;;37.22;22.09;99084.69;1675465;85;25822;-65
2022/07/20 09:59:23;;;;;;;2.77;1.95;;;;;;;37.33;21.37;99081.27;1675726;84;25599;-64
2022/07/20 10:01:53;;;;;;;3.37;2.00;;;;;;;37.91;21.39;99081.78;1656430;84;27334;-63
2022/07/20 10:04:22;;;;;;;3.17;2.30;;;;;;;38.38;22.00;99072.66;1655521;86;25684;-65
2022/07/20 10:06:52;;;;;;;4.30;2.00;;;;;;;38.50;21.46;99075.67;1655686;86;25483;-65
2022/07/20 10:09:20;;;;;;;3.90;2.20;;;;;;;38.76;22.61;99069.28;1655125;86;25747;-64
2022/07/20 10:11:47;;;;;;;3.52;2.10;;;;;;;39.13;20.60;99066.48;1655520;86;25733;-65
2022/07/20 10:14:20;;;;;;;3.35;1.82;;;;;;;39.46;20.94;99071.66;1655400;86;28201;-63
2022/07/20 10:16:53;;;;;;;5.50;2.10;;;;;;;39.96;20.40;99070.56;1655250;86;25691;-64
2022/07/20 10:19:42;;;;;;;2.62;1.98;;;;;;;40.23;19.71;99070.53;1655436;86;25712;-62
2022/07/20 10:22:10;;;;;;;2.00;1.67;;;;;;;40.38;19.37;99067.48;1654355;86;26772;-65
2022/07/20 10:24:38;;;;;;;2.85;2.00;;;;;;;40.56;19.16;99062.00;1655652;86;25495;-64
2022/07/20 10:27:27;;;;;;;4.57;2.10;;;;;;;40.50;20.38;99061.19;1655367;86;25855;-63
2022/07/20 10:29:56;;;;;;;3.80;2.15;;;;;;;40.59;19.72;99065.92;1655533;86;25501;-65
2022/07/20 10:32:29;;;;;;;3.65;2.05;;;;;;;40.43;20.14;99063.84;1655312;86;25722;-64
2022/07/20 10:34:58;;;;;;;2.85;1.80;;;;;;;40.38;19.40;99066.05;1655418;86;25795;-65
2022/07/20 10:37:38;;;;;;;2.87;1.60;;;;;;;40.05;18.50;99073.91;1636497;86;25620;-64
2022/07/20 10:40:15;;;;;;;3.02;1.67;;;;;;;40.12;18.63;99077.74;1655381;86;27437;-64
2022/07/20 10:42:53;;;;;;;3.58;1.90;;;;;;;40.16;18.98;99066.04;1655157;86;25900;-65
2022/07/20 10:45:27;;;;;;;3.47;1.87;;;;;;;39.95;18.36;99073.30;1655743;86;25531;-64
2022/07/20 10:48:14;;;;;;;2.67;1.85;;;;;;;39.94;18.56;99065.97;1654941;86;25612;-64
2022/07/20 10:50:45;;;;;;;2.10;1.62;;;;;;;40.21;18.41;99066.73;1655337;86;25443;-63
2022/07/20 10:53:20;;;;;;;2.67;1.80;;;;;;;39.56;18.35;99052.98;1655225;86;27495;-63
2022/07/20 10:55:53;;;;;;;2.77;1.70;;;;;;;39.16;18.11;99054.02;1655403;86;25609;-65
2022/07/20 10:58:26;;;;;;;2.85;1.90;;;;;;;38.83;19.64;99053.12;1655323;86;25447;-65
2022/07/20 11:00:57;;;;;;;3.75;1.70;;;;;;;38.90;19.71;99051.24;1655604;86;25706;-64
2022/07/20 11:03:40;;;;;;;3.50;1.85;;;;;;;39.15;20.31;99048.95;1655583;86;25455;-63
2022/07/20 11:06:18;;;;;;;3.27;1.82;;;;;;;39.76;19.38;99049.93;1655071;86;28498;-65
2022/07/20 11:08:58;;;;;;;2.77;1.90;;;;;;;40.23;18.47;99044.70;1655641;86;25714;-64
2022/07/20 11:11:28;;;;;;;2.83;1.80;;;;;;;40.21;18.58;99044.42;1664541;85;25703;-65
2022/07/20 11:13:55;;;;;;;4.40;2.10;;;;;;;40.51;18.74;99045.52;1689284;84;25703;-64
2022/07/20 11:16:25;;;;;;;2.25;1.95;;;;;;;40.09;18.82;99049.30;1689763;84;25427;-65
2022/07/20 11:18:53;;;;;;;8.05;2.10;;;;;;;40.30;18.84;99039.11;1689704;84;27402;-65
2022/07/20 11:21:30;;;;;;;5.93;1.80;;;;;;;40.88;19.27;99036.02;1689702;84;25673;-65
2022/07/20 11:23:56;;;;;;;2.75;1.80;;;;;;;41.35;17.24;99036.92;1689576;84;25503;-63
2022/07/20 11:26:23;;;;;;;3.75;1.90;;;;;;;41.46;18.13;99041.29;1689339;84;25683;-65
2022/07/20 11:28:58;;;;;;;2.98;2.37;;;;;;;41.93;17.75;99041.44;1689362;85;25585;-65
2022/07/20 11:31:30;;;;;;;5.47;2.30;;;;;;;42.12;16.67;99043.13;1689384;84;27480;-66
2022/07/20 11:33:59;;;;;;;2.72;1.70;;;;;;;42.12;16.96;99043.77;1689395;84;25518;-63
2022/07/20 11:36:28;;;;;;;;;;;;;;;42.48;16.69;99041.08;1692075;84;25590;-64
2022/07/20 11:38:59;;;;;;;3.42;1.52;;;;;;;42.67;16.34;99031.11;1689323;84;25807;-64